createdAt,value
2022-08-30T00:03:37.599Z,6.68
2022-08-30T00:13:43.365Z,5.13
2022-08-30T00:23:47.881Z,5.93
2022-08-30T00:33:50.938Z,6.15
2022-08-30T00:43:55.766Z,6.30
2022-08-30T00:53:59.464Z,6.13
2022-08-30T01:04:05.808Z,6.40
2022-08-30T01:14:11.971Z,6.22
2022-08-30T01:24:17.838Z,6.75
2022-08-30T01:34:20.939Z,6.00
2022-08-30T01:44:25.931Z,6.93
2022-08-30T01:54:36.591Z,6.60
2022-08-30T02:04:43.600Z,5.47
2022-08-30T02:14:47.092Z,5.82
2022-08-30T02:24:51.589Z,5.68
2022-08-30T02:34:55.571Z,4.78
2022-08-30T02:45:00.741Z,5.97
2022-08-30T02:55:04.032Z,4.95
2022-08-30T03:05:09.486Z,6.00
2022-08-30T03:15:13.690Z,5.85
2022-08-30T03:25:20.955Z,7.43
2022-08-30T03:35:24.322Z,6.47
2022-08-30T03:45:29.329Z,6.60
2022-08-30T03:55:32.455Z,7.72
2022-08-30T04:05:37.099Z,7.38
2022-08-30T04:15:40.217Z,5.63
2022-08-30T04:25:46.773Z,6.55
2022-08-30T04:35:50.414Z,4.80
2022-08-30T04:46:00.833Z,3.95
2022-08-30T04:56:09.264Z,4.53
2022-08-30T05:06:14.481Z,5.18
2022-08-30T05:16:20.747Z,5.18
2022-08-30T05:26:39.348Z,6.40
2022-08-30T05:36:42.766Z,7.53
2022-08-30T05:46:48.216Z,6.60
2022-08-30T05:56:54.037Z,6.20
2022-08-30T06:07:09.469Z,6.15
2022-08-30T06:17:16.567Z,6.65
2022-08-30T06:27:21.299Z,8.15
2022-08-30T06:37:29.611Z,9.82
2022-08-30T06:47:35.167Z,13.13
2022-08-30T06:57:38.783Z,12.70
2022-08-30T07:07:43.497Z,11.55
2022-08-30T07:29:14.472Z,12.63
2022-08-30T07:50:02.725Z,13.38
2022-08-30T08:00:21.728Z,11.35
2022-08-30T08:11:25.244Z,10.85
2022-08-30T08:21:12.033Z,10.10
2022-08-30T08:31:19.751Z,10.90
2022-08-30T08:41:37.181Z,8.40
2022-08-30T08:52:05.837Z,8.50
2022-08-30T09:02:30.285Z,9.82
2022-08-30T09:13:00.513Z,7.95
2022-08-30T09:23:58.958Z,7.05
2022-08-30T09:34:19.293Z,5.97
2022-08-30T09:44:39.026Z,6.03
2022-08-30T10:05:40.033Z,5.68
2022-08-30T10:16:04.324Z,4.47
2022-08-30T10:26:19.796Z,5.95
2022-08-30T10:47:44.879Z,6.10
2022-08-30T10:57:53.320Z,9.77
2022-08-30T11:08:20.525Z,10.25
2022-08-30T11:18:38.567Z,11.30
2022-08-30T11:29:11.817Z,16.23
2022-08-30T11:39:54.609Z,17.75
2022-08-30T11:50:11.081Z,20.40
2022-08-30T12:00:28.469Z,24.55
2022-08-30T12:10:44.669Z,24.85
2022-08-30T12:20:50.809Z,22.30
2022-08-30T12:31:06.797Z,22.75
2022-08-30T12:41:22.901Z,21.52
2022-08-30T12:51:35.905Z,23.83
2022-08-30T13:01:41.732Z,27.98
2022-08-30T13:11:52.786Z,30.20
2022-08-30T13:22:29.585Z,31.33
2022-08-30T13:32:42.459Z,31.52
2022-08-30T13:42:46.883Z,32.10
2022-08-30T13:52:51.405Z,32.70
2022-08-30T14:03:09.823Z,27.50
2022-08-30T14:13:17.482Z,21.67
2022-08-30T14:23:21.003Z,17.15
2022-08-30T14:33:25.603Z,16.48
2022-08-30T14:43:29.857Z,14.23
2022-08-30T14:53:36.770Z,15.07
2022-08-30T15:03:55.379Z,15.63
2022-08-30T15:24:07.408Z,16.73
2022-08-30T15:34:14.702Z,16.85
2022-08-30T15:44:20.142Z,16.75
2022-08-30T15:54:24.947Z,17.52
2022-08-30T16:04:29.419Z,16.88
2022-08-30T16:14:35.247Z,20.80
2022-08-30T16:24:39.149Z,18.75
2022-08-30T16:34:43.901Z,18.67
2022-08-30T16:44:50.193Z,18.52
2022-08-30T16:55:02.905Z,22.30
2022-08-30T17:05:12.093Z,22.95
2022-08-30T17:15:37.294Z,23.63
2022-08-30T17:25:43.870Z,25.75
2022-08-30T17:35:50.481Z,24.58
2022-08-30T17:45:53.543Z,21.80
2022-08-30T17:55:59.384Z,20.38
2022-08-30T18:06:07.158Z,19.30
2022-08-30T18:16:11.918Z,21.48
2022-08-30T18:26:15.699Z,20.75
2022-08-30T18:36:22.184Z,22.13
2022-08-30T18:46:25.532Z,20.17
2022-08-30T18:56:31.732Z,21.85
2022-08-30T19:06:37.618Z,22.83
2022-08-30T19:16:42.377Z,20.45
2022-08-30T19:26:46.910Z,22.05
2022-08-30T19:36:52.455Z,23.35
2022-08-30T19:47:05.855Z,22.17
2022-08-30T19:57:13.567Z,23.77
2022-08-30T20:07:25.245Z,25.83
2022-08-30T20:17:53.455Z,24.45
2022-08-30T20:27:55.702Z,24.70
2022-08-30T20:38:08.251Z,22.48
2022-08-30T20:48:11.236Z,19.42
2022-08-30T20:58:17.146Z,22.45
2022-08-30T21:08:21.044Z,20.10
2022-08-30T21:18:29.881Z,19.50
2022-08-30T21:28:35.419Z,20.33
2022-08-30T21:38:40.080Z,18.02
2022-08-30T21:48:43.078Z,19.17
2022-08-30T21:58:48.128Z,20.17
2022-08-30T22:08:51.164Z,18.40
2022-08-30T22:18:57.797Z,19.00
2022-08-30T22:29:01.147Z,19.80
2022-08-30T22:39:07.449Z,16.35
2022-08-30T22:49:12.036Z,18.23
2022-08-30T22:59:16.707Z,17.65
2022-08-30T23:09:19.905Z,19.33
2022-08-30T23:19:24.496Z,19.65
2022-08-30T23:29:46.582Z,20.27
2022-08-30T23:40:09.650Z,20.20
2022-08-30T23:50:31.148Z,21.83
